Time,TemperatureF,DewpointF,PressureIn,WindDirection,WindDirectionDegrees,WindSpeedMPH,WindSpeedGustMPH,Humidity,HourlyPrecipIn,Conditions,Clouds,dailyrainin,SoftwareType,DateUTC
2013-01-21 00:00:00,34.8,26.7,29.59,SW,215,4.0,22.0,72,0.00,,,0.00,Wunderground v.1.15,2013-01-21 04:00:00,
2013-01-21 00:10:00,34.4,26.3,29.60,SSW,205,4.0,4.0,72,0.00,,,0.00,Wunderground v.1.15,2013-01-21 04:10:00,
2013-01-21 00:20:00,33.9,26.2,29.60,SW,225,3.0,22.0,73,0.00,,,0.00,Wunderground v.1.15,2013-01-21 04:20:00,
2013-01-21 00:30:00,33.6,26.2,29.60,SSW,203,3.0,22.0,74,0.00,,,0.00,Wunderground v.1.15,2013-01-21 04:30:00,
2013-01-21 00:40:00,33.6,25.9,29.61,South,188,4.0,4.0,73,0.00,,,0.00,Wunderground v.1.15,2013-01-21 04:40:00,
2013-01-21 00:50:00,33.9,24.1,29.60,SSW,199,7.0,7.0,67,0.00,,,0.00,Wunderground v.1.15,2013-01-21 04:50:00,
2013-01-21 01:10:00,33.3,23.5,29.61,SW,232,7.0,22.0,67,0.00,,,0.00,Wunderground v.1.15,2013-01-21 05:10:00,
2013-01-21 01:20:00,32.8,22.3,29.62,West,264,7.0,7.0,65,0.00,,,0.00,Wunderground v.1.15,2013-01-21 05:20:00,
2013-01-21 01:30:00,32.3,20.3,29.63,SW,221,8.0,22.0,61,0.00,,,0.00,Wunderground v.1.15,2013-01-21 05:30:00,
2013-01-21 01:40:00,31.7,18.2,29.63,SW,234,10.0,22.0,57,0.00,,,0.00,Wunderground v.1.15,2013-01-21 05:40:00,
2013-01-21 01:50:00,30.8,16.1,29.64,SW,218,8.0,22.0,54,0.00,,,0.00,Wunderground v.1.15,2013-01-21 05:50:00,
2013-01-21 02:00:00,30.2,15.5,29.65,SW,215,9.0,22.0,54,0.00,,,0.00,Wunderground v.1.15,2013-01-21 06:00:00,
2013-01-21 02:10:00,29.6,13.2,29.65,SW,223,10.0,10.0,50,0.00,,,0.00,Wunderground v.1.15,2013-01-21 06:10:00,
2013-01-21 02:20:00,28.9,13.0,29.66,SSW,207,11.0,22.0,51,0.00,,,0.00,Wunderground v.1.15,2013-01-21 06:20:00,
2013-01-21 02:30:00,28.4,13.0,29.67,SW,226,10.0,10.0,52,0.00,,,0.00,Wunderground v.1.15,2013-01-21 06:30:00,
2013-01-21 02:40:00,27.9,13.0,29.68,SW,226,7.0,7.0,53,0.00,,,0.00,Wunderground v.1.15,2013-01-21 06:40:00,
2013-01-21 02:50:00,27.5,13.4,29.68,SW,221,7.0,22.0,55,0.00,,,0.00,Wunderground v.1.15,2013-01-21 06:50:00,
2013-01-21 03:00:00,26.9,13.3,29.69,SSW,197,6.0,6.0,56,0.00,,,0.00,Wunderground v.1.15,2013-01-21 07:00:00,
2013-01-21 03:10:00,25.8,10.6,29.70,West,269,7.0,22.0,52,0.00,,,0.00,Wunderground v.1.15,2013-01-21 07:10:00,
2013-01-21 03:20:00,25.0,9.8,29.71,SSW,212,9.0,9.0,52,0.00,,,0.00,Wunderground v.1.15,2013-01-21 07:20:00,
2013-01-21 03:30:00,24.4,8.8,29.71,South,189,7.0,7.0,51,0.00,,,0.00,Wunderground v.1.15,2013-01-21 07:30:00,
2013-01-21 03:40:00,23.8,6.0,29.72,WSW,237,11.0,22.0,46,0.00,,,0.00,Wunderground v.1.15,2013-01-21 07:40:00,
2013-01-21 03:50:00,23.1,5.8,29.73,South,190,9.0,22.0,47,0.00,,,0.00,Wunderground v.1.15,2013-01-21 07:50:00,
2013-01-21 04:00:00,22.2,5.9,29.73,West,269,10.0,22.0,49,0.00,,,0.00,Wunderground v.1.15,2013-01-21 08:00:00,
2013-01-21 04:10:00,21.4,5.2,29.74,SSW,198,10.0,10.0,49,0.00,,,0.00,Wunderground v.1.15,2013-01-21 08:10:00,
2013-01-21 04:20:00,20.5,4.8,29.75,WSW,246,7.0,7.0,50,0.00,,,0.00,Wunderground v.1.15,2013-01-21 08:20:00,
2013-01-21 04:30:00,19.8,4.6,29.75,NNE,18,7.0,22.0,51,0.00,,,0.00,Wunderground v.1.15,2013-01-21 08:30:00,
2013-01-21 04:40:00,19.2,4.4,29.76,SW,218,7.0,22.0,52,0.00,,,0.00,Wunderground v.1.15,2013-01-21 08:40:00,
2013-01-21 04:50:00,18.8,4.1,29.76,SSW,195,8.0,22.0,52,0.00,,,0.00,Wunderground v.1.15,2013-01-21 08:50:00,
2013-01-21 05:00:00,18.4,4.1,29.76,SSW,197,6.0,22.0,53,0.00,,,0.00,Wunderground v.1.15,2013-01-21 09:00:00,
2013-01-21 05:10:00,17.8,3.9,29.77,SW,228,7.0,7.0,54,0.00,,,0.00,Wunderground v.1.15,2013-01-21 09:10:00,
2013-01-21 05:20:00,17.3,4.3,29.78,West,277,6.0,22.0,56,0.00,,,0.00,Wunderground v.1.15,2013-01-21 09:20:00,
2013-01-21 05:30:00,17.0,4.0,29.78,WNW,300,7.0,7.0,56,0.00,,,0.00,Wunderground v.1.15,2013-01-21 09:30:00,
2013-01-21 05:40:00,16.6,4.0,29.78,West,267,6.0,6.0,57,0.00,,,0.00,Wunderground v.1.15,2013-01-21 09:40:00,
2013-01-21 05:50:00,16.4,3.8,29.79,WSW,238,8.0,22.0,57,0.00,,,0.00,Wunderground v.1.15,2013-01-21 09:50:00,
2013-01-21 06:00:00,16.0,3.8,29.80,SSW,205,4.0,22.0,58,0.00,,,0.00,Wunderground v.1.15,2013-01-21 10:00:00,
2013-01-21 06:10:00,15.5,3.0,29.81,SW,214,7.0,22.0,57,0.00,,,0.00,Wunderground v.1.15,2013-01-21 10:10:00,
2013-01-21 06:20:00,15.0,2.9,29.81,SSW,211,7.0,22.0,58,0.00,,,0.00,Wunderground v.1.15,2013-01-21 10:20:00,
2013-01-21 06:30:00,14.4,2.3,29.82,SW,222,5.0,22.0,58,0.00,,,0.00,Wunderground v.1.15,2013-01-21 10:30:00,
2013-01-21 06:40:00,13.9,2.2,29.82,SW,232,6.0,22.0,59,0.00,,,0.00,Wunderground v.1.15,2013-01-21 10:40:00,
2013-01-21 06:50:00,13.4,2.4,29.83,SW,214,4.0,22.0,61,0.00,,,0.00,Wunderground v.1.15,2013-01-21 10:50:00,
2013-01-21 07:00:00,13.4,2.8,29.83,SW,219,6.0,6.0,62,0.00,,,0.00,Wunderground v.1.15,2013-01-21 11:00:00,
2013-01-21 07:10:00,13.2,2.9,29.83,WSW,250,4.0,22.0,63,0.00,,,0.00,Wunderground v.1.15,2013-01-21 11:10:00,
2013-01-21 07:20:00,13.2,2.9,29.84,West,271,6.0,6.0,63,0.00,,,0.00,Wunderground v.1.15,2013-01-21 11:20:00,
2013-01-21 07:30:00,13.2,2.6,29.84,West,280,8.0,8.0,62,0.00,,,0.00,Wunderground v.1.15,2013-01-21 11:30:00,
2013-01-21 07:40:00,13.0,2.4,29.84,SSW,212,8.0,8.0,62,0.00,,,0.00,Wunderground v.1.15,2013-01-21 11:40:00,
2013-01-21 07:50:00,12.8,2.6,29.84,SSW,201,8.0,8.0,63,0.00,,,0.00,Wunderground v.1.15,2013-01-21 11:50:00,
2013-01-21 08:00:00,12.5,2.6,29.85,South,191,6.0,22.0,64,0.00,,,0.00,Wunderground v.1.15,2013-01-21 12:00:00,
2013-01-21 08:10:00,12.6,2.7,29.85,SW,224,6.0,6.0,64,0.00,,,0.00,Wunderground v.1.15,2013-01-21 12:10:00,
2013-01-21 08:20:00,13.2,2.9,29.85,WSW,242,7.0,22.0,63,0.00,,,0.00,Wunderground v.1.15,2013-01-21 12:20:00,
2013-01-21 08:30:00,13.6,3.0,29.86,SW,224,9.0,22.0,62,0.00,,,0.00,Wunderground v.1.15,2013-01-21 12:30:00,
2013-01-21 08:40:00,13.8,2.8,29.86,South,186,9.0,22.0,61,0.00,,,0.00,Wunderground v.1.15,2013-01-21 12:40:00,
2013-01-21 08:50:00,13.9,2.9,29.86,ESE,117,9.0,22.0,61,0.00,,,0.00,Wunderground v.1.15,2013-01-21 12:50:00,
2013-01-21 09:00:00,14.2,2.8,29.87,SSW,195,7.0,7.0,60,0.00,,,0.00,Wunderground v.1.15,2013-01-21 13:00:00,
2013-01-21 09:10:00,14.2,2.8,29.87,SW,215,9.0,22.0,60,0.00,,,0.00,Wunderground v.1.15,2013-01-21 13:10:00,
2013-01-21 09:20:00,14.3,2.6,29.88,SW,221,9.0,9.0,59,0.00,,,0.00,Wunderground v.1.15,2013-01-21 13:20:00,
2013-01-21 09:30:00,14.1,2.0,29.88,SSW,210,11.0,11.0,58,0.00,,,0.00,Wunderground v.1.15,2013-01-21 13:30:00,
2013-01-21 09:40:00,14.4,2.3,29.89,SSE,150,7.0,7.0,58,0.00,,,0.00,Wunderground v.1.15,2013-01-21 13:40:00,
2013-01-21 09:50:00,14.3,1.8,29.90,SSW,207,8.0,8.0,57,0.00,,,0.00,Wunderground v.1.15,2013-01-21 13:50:00,
2013-01-21 10:00:00,14.2,1.7,29.90,SSW,195,10.0,10.0,57,0.00,,,0.00,Wunderground v.1.15,2013-01-21 14:00:00,
2013-01-21 10:10:00,14.3,1.8,29.90,SW,217,9.0,22.0,57,0.00,,,0.00,Wunderground v.1.15,2013-01-21 14:10:00,
2013-01-21 10:20:00,14.6,2.1,29.91,SSW,195,7.0,22.0,57,0.00,,,0.00,Wunderground v.1.15,2013-01-21 14:20:00,
2013-01-21 10:30:00,14.4,1.5,29.91,SW,236,9.0,9.0,56,0.00,,,0.00,Wunderground v.1.15,2013-01-21 14:30:00,
2013-01-21 10:40:00,14.5,2.0,29.91,SSW,204,9.0,22.0,57,0.00,,,0.00,Wunderground v.1.15,2013-01-21 14:40:00,
2013-01-21 10:50:00,14.0,1.2,29.90,WSW,238,12.0,22.0,56,0.00,,,0.00,Wunderground v.1.15,2013-01-21 14:50:00,
2013-01-21 11:00:00,14.0,1.2,29.91,SSE,168,9.0,9.0,56,0.00,,,0.00,Wunderground v.1.15,2013-01-21 15:00:00,
2013-01-21 11:10:00,14.7,2.6,29.92,SW,226,5.0,22.0,58,0.00,,,0.00,Wunderground v.1.15,2013-01-21 15:10:00,
2013-01-21 11:20:00,14.6,1.7,29.92,SSW,193,7.0,7.0,56,0.00,,,0.00,Wunderground v.1.15,2013-01-21 15:20:00,
2013-01-21 11:30:00,14.3,1.8,29.92,WSW,239,7.0,22.0,57,0.00,,,0.00,Wunderground v.1.15,2013-01-21 15:30:00,
2013-01-21 11:40:00,14.9,2.4,29.92,West,276,5.0,22.0,57,0.00,,,0.00,Wunderground v.1.15,2013-01-21 15:40:00,
2013-01-21 11:50:00,14.4,1.9,29.93,SSW,201,8.0,8.0,57,0.00,,,0.00,Wunderground v.1.15,2013-01-21 15:50:00,
2013-01-21 12:00:00,14.3,1.4,29.93,South,179,9.0,9.0,56,0.00,,,0.00,Wunderground v.1.15,2013-01-21 16:00:00,
2013-01-21 12:10:00,14.6,1.3,29.92,SSW,205,8.0,22.0,55,0.00,,,0.00,Wunderground v.1.15,2013-01-21 16:10:00,
2013-01-21 12:20:00,14.7,1.0,29.91,WSW,239,8.0,22.0,54,0.00,,,0.00,Wunderground v.1.15,2013-01-21 16:20:00,
2013-01-21 12:30:00,15.0,2.1,29.92,West,281,7.0,7.0,56,0.00,,,0.00,Wunderground v.1.15,2013-01-21 16:30:00,
2013-01-21 12:40:00,15.2,1.5,29.92,WSW,242,8.0,8.0,54,0.00,,,0.00,Wunderground v.1.15,2013-01-21 16:40:00,
2013-01-21 12:50:00,15.1,0.6,29.92,SW,224,9.0,22.0,52,0.00,,,0.00,Wunderground v.1.15,2013-01-21 16:50:00,
2013-01-21 13:00:00,15.1,0.6,29.92,WSW,242,9.0,22.0,52,0.00,,,0.00,Wunderground v.1.15,2013-01-21 17:00:00,
2013-01-21 13:10:00,15.2,0.7,29.92,SW,236,9.0,22.0,52,0.00,,,0.00,Wunderground v.1.15,2013-01-21 17:10:00,
2013-01-21 13:20:00,15.7,1.6,29.93,South,189,8.0,22.0,53,0.00,,,0.00,Wunderground v.1.15,2013-01-21 17:20:00,
2013-01-21 13:30:00,15.6,1.1,29.93,WSW,242,8.0,22.0,52,0.00,,,0.00,Wunderground v.1.15,2013-01-21 17:30:00,
2013-01-21 13:40:00,15.7,1.2,29.93,South,170,8.0,8.0,52,0.00,,,0.00,Wunderground v.1.15,2013-01-21 17:40:00,
2013-01-21 13:50:00,15.9,2.6,29.93,SSW,195,8.0,8.0,55,0.00,,,0.00,Wunderground v.1.15,2013-01-21 17:50:00,
2013-01-21 14:00:00,15.6,0.7,29.94,WSW,253,10.0,22.0,51,0.00,,,0.00,Wunderground v.1.15,2013-01-21 18:00:00,
2013-01-21 14:10:00,15.7,0.3,29.94,West,262,9.0,9.0,50,0.00,,,0.00,Wunderground v.1.15,2013-01-21 18:10:00,
2013-01-21 14:20:00,15.8,0.8,29.95,SW,217,9.0,22.0,51,0.00,,,0.00,Wunderground v.1.15,2013-01-21 18:20:00,
2013-01-21 14:30:00,16.1,0.7,29.95,SSW,192,7.0,22.0,50,0.00,,,0.00,Wunderground v.1.15,2013-01-21 18:30:00,
2013-01-21 14:40:00,16.1,0.3,29.95,WSW,246,9.0,9.0,49,0.00,,,0.00,Wunderground v.1.15,2013-01-21 18:40:00,
2013-01-21 14:50:00,16.4,1.0,29.96,SSW,196,7.0,22.0,50,0.00,,,0.00,Wunderground v.1.15,2013-01-21 18:50:00,
2013-01-21 15:00:00,16.3,0.0,29.97,SW,232,9.0,22.0,48,0.00,,,0.00,Wunderground v.1.15,2013-01-21 19:00:00,
2013-01-21 15:10:00,16.3,0.5,29.97,SW,228,8.0,22.0,49,0.00,,,0.00,Wunderground v.1.15,2013-01-21 19:10:00,
2013-01-21 15:20:00,16.6,0.7,29.97,South,190,6.0,22.0,49,0.00,,,0.00,Wunderground v.1.15,2013-01-21 19:20:00,
2013-01-21 15:30:00,16.4,0.5,29.98,South,190,6.0,22.0,49,0.00,,,0.00,Wunderground v.1.15,2013-01-21 19:30:00,
2013-01-21 15:40:00,16.2,0.4,29.98,West,281,8.0,8.0,49,0.00,,,0.00,Wunderground v.1.15,2013-01-21 19:40:00,
2013-01-21 15:50:00,16.1,0.3,29.99,South,184,6.0,22.0,49,0.00,,,0.00,Wunderground v.1.15,2013-01-21 19:50:00,
2013-01-21 16:00:00,15.6,-0.2,29.99,WSW,246,7.0,7.0,49,0.00,,,0.00,Wunderground v.1.15,2013-01-21 20:00:00,
2013-01-21 16:10:00,15.2,-0.1,30.00,WSW,245,6.0,6.0,50,0.00,,,0.00,Wunderground v.1.15,2013-01-21 20:10:00,
2013-01-21 16:20:00,14.9,-0.4,30.00,West,263,7.0,7.0,50,0.00,,,0.00,Wunderground v.1.15,2013-01-21 20:20:00,
2013-01-21 16:30:00,14.7,-1.0,30.01,SSE,150,7.0,22.0,49,0.00,,,0.00,Wunderground v.1.15,2013-01-21 20:30:00,
2013-01-21 16:40:00,14.7,-0.6,30.01,SSW,195,8.0,22.0,50,0.00,,,0.00,Wunderground v.1.15,2013-01-21 20:40:00,
2013-01-21 16:50:00,14.1,-0.7,30.02,SSW,204,7.0,7.0,51,0.00,,,0.00,Wunderground v.1.15,2013-01-21 20:50:00,
2013-01-21 17:00:00,13.8,-0.6,30.02,SSW,205,7.0,7.0,52,0.00,,,0.00,Wunderground v.1.15,2013-01-21 21:00:00,
2013-01-21 17:10:00,13.5,-0.5,30.02,SSW,200,5.0,5.0,53,0.00,,,0.00,Wunderground v.1.15,2013-01-21 21:10:00,
2013-01-21 17:20:00,13.3,-0.3,30.03,SW,215,5.0,5.0,54,0.00,,,0.00,Wunderground v.1.15,2013-01-21 21:20:00,
2013-01-21 17:30:00,13.2,-0.4,30.03,SW,215,5.0,22.0,54,0.00,,,0.00,Wunderground v.1.15,2013-01-21 21:30:00,
2013-01-21 17:40:00,13.1,-0.1,30.04,SSW,207,5.0,5.0,55,0.00,,,0.00,Wunderground v.1.15,2013-01-21 21:40:00,
2013-01-21 17:50:00,12.9,0.1,30.04,SSW,204,4.0,22.0,56,0.00,,,0.00,Wunderground v.1.15,2013-01-21 21:50:00,
2013-01-21 18:00:00,12.6,-0.5,30.05,SSW,210,4.0,22.0,55,0.00,,,0.00,Wunderground v.1.15,2013-01-21 22:00:00,
2013-01-21 18:10:00,12.4,-0.7,30.05,SSE,159,4.0,4.0,55,0.00,,,0.00,Wunderground v.1.15,2013-01-21 22:10:00,
2013-01-21 18:20:00,12.4,-0.3,30.06,WSW,249,4.0,4.0,56,0.00,,,0.00,Wunderground v.1.15,2013-01-21 22:20:00,
2013-01-21 18:30:00,12.1,-0.2,30.06,SW,226,5.0,5.0,57,0.00,,,0.00,Wunderground v.1.15,2013-01-21 22:30:00,
2013-01-21 18:40:00,12.0,-0.7,30.06,WSW,239,5.0,22.0,56,0.00,,,0.00,Wunderground v.1.15,2013-01-21 22:40:00,
2013-01-21 18:50:00,11.9,-0.4,30.07,South,188,4.0,4.0,57,0.00,,,0.00,Wunderground v.1.15,2013-01-21 22:50:00,
2013-01-21 19:00:00,11.7,-1.0,30.07,South,187,3.0,22.0,56,0.00,,,0.00,Wunderground v.1.15,2013-01-21 23:00:00,
2013-01-21 19:10:00,11.7,-1.0,30.07,SSW,195,4.0,4.0,56,0.00,,,0.00,Wunderground v.1.15,2013-01-21 23:10:00,
2013-01-21 19:20:00,11.4,-0.5,30.08,SW,229,4.0,4.0,58,0.00,,,0.00,Wunderground v.1.15,2013-01-21 23:20:00,
2013-01-21 19:30:00,11.2,-0.7,30.08,SSW,194,3.0,22.0,58,0.00,,,0.00,Wunderground v.1.15,2013-01-21 23:30:00,
2013-01-21 19:40:00,11.3,-1.0,30.08,SSW,210,4.0,4.0,57,0.00,,,0.00,Wunderground v.1.15,2013-01-21 23:40:00,
2013-01-21 19:50:00,11.2,-1.1,30.08,SSW,210,3.0,22.0,57,0.00,,,0.00,Wunderground v.1.15,2013-01-21 23:50:00,
2013-01-21 20:00:00,11.2,-1.1,30.07,WSW,237,4.0,22.0,57,0.00,,,0.00,Wunderground v.1.15,2013-01-22 00:00:00,
2013-01-21 20:10:00,11.1,-1.2,30.08,SW,222,4.0,22.0,57,0.00,,,0.00,Wunderground v.1.15,2013-01-22 00:10:00,
2013-01-21 20:20:00,11.0,-0.9,30.08,WSW,242,4.0,4.0,58,0.00,,,0.00,Wunderground v.1.15,2013-01-22 00:20:00,
2013-01-21 20:30:00,10.7,-0.5,30.08,SW,217,2.0,22.0,60,0.00,,,0.00,Wunderground v.1.15,2013-01-22 00:30:00,
2013-01-21 20:40:00,10.6,-0.6,30.08,SW,222,3.0,22.0,60,0.00,,,0.00,Wunderground v.1.15,2013-01-22 00:40:00,
2013-01-21 20:50:00,10.5,-0.7,30.09,West,264,3.0,3.0,60,0.00,,,0.00,Wunderground v.1.15,2013-01-22 00:50:00,
2013-01-21 21:00:00,10.2,-0.6,30.09,SSW,204,1.0,22.0,61,0.00,,,0.00,Wunderground v.1.15,2013-01-22 01:00:00,
2013-01-21 21:10:00,9.9,-0.5,30.10,South,180,1.0,22.0,62,0.00,,,0.00,Wunderground v.1.15,2013-01-22 01:10:00,
2013-01-21 21:20:00,9.8,-0.6,30.10,SSW,203,1.0,22.0,62,0.00,,,0.00,Wunderground v.1.15,2013-01-22 01:20:00,
2013-01-21 21:30:00,9.8,-0.6,30.11,SW,236,2.0,2.0,62,0.00,,,0.00,Wunderground v.1.15,2013-01-22 01:30:00,
2013-01-21 21:40:00,9.7,-0.4,30.11,South,191,1.0,22.0,63,0.00,,,0.00,Wunderground v.1.15,2013-01-22 01:40:00,
2013-01-21 21:50:00,9.7,0.0,30.11,SW,219,1.0,22.0,64,0.00,,,0.00,Wunderground v.1.15,2013-01-22 01:50:00,
2013-01-21 22:00:00,9.9,-0.2,30.11,SW,225,1.0,22.0,63,0.00,,,0.00,Wunderground v.1.15,2013-01-22 02:00:00,
2013-01-21 22:10:00,10.0,-0.1,30.11,West,259,2.0,2.0,63,0.00,,,0.00,Wunderground v.1.15,2013-01-22 02:10:00,
2013-01-21 22:20:00,10.0,-0.4,30.12,SSW,201,2.0,2.0,62,0.00,,,0.00,Wunderground v.1.15,2013-01-22 02:20:00,
2013-01-21 22:30:00,10.0,-0.4,30.13,West,260,2.0,2.0,62,0.00,,,0.00,Wunderground v.1.15,2013-01-22 02:30:00,
2013-01-21 22:40:00,9.9,-0.5,30.13,West,270,2.0,2.0,62,0.00,,,0.00,Wunderground v.1.15,2013-01-22 02:40:00,
2013-01-21 22:50:00,9.7,-1.1,30.13,West,270,1.0,22.0,61,0.00,,,0.00,Wunderground v.1.15,2013-01-22 02:50:00,
2013-01-21 23:00:00,9.7,-1.1,30.13,SW,219,2.0,22.0,61,0.00,,,0.00,Wunderground v.1.15,2013-01-22 03:00:00,
2013-01-21 23:10:00,9.6,-0.8,30.14,South,173,2.0,2.0,62,0.00,,,0.00,Wunderground v.1.15,2013-01-22 03:10:00,
2013-01-21 23:20:00,9.5,-0.9,30.14,SSW,204,2.0,22.0,62,0.00,,,0.00,Wunderground v.1.15,2013-01-22 03:20:00,
2013-01-21 23:30:00,9.4,-0.7,30.14,South,180,2.0,2.0,63,0.00,,,0.00,Wunderground v.1.15,2013-01-22 03:30:00,
2013-01-21 23:40:00,9.3,-0.8,30.14,SW,225,1.0,22.0,63,0.00,,,0.00,Wunderground v.1.15,2013-01-22 03:40:00,
2013-01-21 23:50:00,9.2,-0.5,30.13,SW,224,2.0,22.0,64,0.00,,,0.00,Wunderground v.1.15,2013-01-22 03:50:00,